San Diego, CA (92140)

10:25 PM PST on December 09, 2016 (GMT -0800)
Mission Hills | | Change Station

Elev 180 ft 32.75 °N, 117.19 °W | Updated 2 minutes ago

Mostly Cloudy
Mostly Cloudy
59.6 °F
Feels Like 59.6 °F
N
0.0
Wind Variable Wind from NNE
Gusts 0.0 mph

Today
High -- | Low -- °F
--% Chance of Precip.
Yesterday
High -- | Low -- °F
Precip. -- in
Pressure 30.20 in
Visibility 10.0 miles
Clouds Mostly Cloudy 1600 ft
Dew Point 56 °F
Humidity 87%
Rainfall 0.00 in
Snow Depth Not available.
6:39 AM 4:42 PM
Waxing Gibbous, 81% visible
METAR KSAN 100551Z 02004KT 10SM BKN016 16/12 A3020 RMK AO2 SLP225 T01560122 10172 20156 50006
Pressure 30.20 in
Visibility 10.0 miles
Clouds Mostly Cloudy 1600 ft
Dew Point 56 °F
Humidity 87%
Rainfall 0.00 in
Snow Depth Not available.
6:39 AM 4:42 PM
Waxing Gibbous, 81% visible
METAR KSAN 100551Z 02004KT 10SM BKN016 16/12 A3020 RMK AO2 SLP225 T01560122 10172 20156 50006

10-Day Weather Forecast

Almanac

Astronomy

Dec. 09, 2016 Rise Set
Actual Time
Civil Twilight
Nautical Twilight
Astronomical Twilight
Moon
Length of Visible Light
Length of Day
Tomorrow will be .
, % of the Moon is Illuminated

Today's Extremes

State Highs State Lows

Community

WunderPhotos

Upload Photos

1,956,527 photos uploaded!

WunderBlog® & News

Nearby

Air Quality

  Air Quality AQ Index Pollutant
Not available.

Snow Depth

Station Depth Elevation

Earthquake Activity

City Distance Mag. Time & Date
Minimum magnitude displayed is 2.5.

Coastal Water Temperatures

Place Temperature

Stations

Nearby Weather Stations

Station Location Temp. Windchill Dew Point Humidity Wind Precip. Elev Updated Type
                   

Watches & Warnings

There are currently no watches in effect.